createdAt,value
2023-01-13T00:00:05.115Z,94705.50
2023-01-13T00:02:38.946Z,94707.22
2023-01-13T00:05:06.155Z,94695.53
2023-01-13T00:07:33.285Z,94663.41
2023-01-13T00:10:00.114Z,94676.63
2023-01-13T00:12:26.955Z,94655.63
2023-01-13T00:14:53.999Z,94638.09
2023-01-13T00:17:20.715Z,94664.19
2023-01-13T00:19:48.382Z,94682.84
2023-01-13T00:22:15.078Z,94672.94
2023-01-13T00:24:42.035Z,94659.06
2023-01-13T00:27:08.761Z,94667.34
2023-01-13T00:29:36.359Z,94678.47
2023-01-13T00:32:03.743Z,94665.97
2023-01-13T00:34:31.491Z,94659.13
2023-01-13T00:36:58.514Z,94644.03
2023-01-13T00:39:25.190Z,94659.78
2023-01-13T00:42:10.127Z,94648.41
2023-01-13T00:44:36.793Z,94643.88
2023-01-13T00:47:04.242Z,94614.00
2023-01-13T00:49:31.558Z,94626.19
2023-01-13T00:51:58.478Z,94634.56
2023-01-13T00:54:25.167Z,94625.09
2023-01-13T00:56:51.883Z,94627.06
2023-01-13T00:59:19.126Z,94613.81
2023-01-13T01:01:46.561Z,94634.50
2023-01-13T01:04:13.613Z,94608.63
2023-01-13T01:06:40.489Z,94618.66
2023-01-13T01:09:07.256Z,94613.53
2023-01-13T01:11:34.866Z,94607.88
2023-01-13T01:14:03.485Z,94590.50
2023-01-13T01:16:31.833Z,94603.25
2023-01-13T01:18:59.464Z,94606.22
2023-01-13T01:21:27.711Z,94607.88
2023-01-13T01:23:55.285Z,94616.53
2023-01-13T01:26:26.726Z,94611.91
2023-01-13T01:28:54.828Z,94591.78
2023-01-13T01:31:25.299Z,94588.34
2023-01-13T01:33:53.840Z,94613.91
2023-01-13T01:36:22.059Z,94596.59
2023-01-13T01:38:50.161Z,94599.50
2023-01-13T01:41:29.059Z,94585.81
2023-01-13T01:44:28.922Z,94601.63
2023-01-13T01:46:56.861Z,94602.47
2023-01-13T01:49:34.083Z,94602.72
2023-01-13T01:52:12.902Z,94598.75
2023-01-13T01:55:13.081Z,94609.16
2023-01-13T01:57:43.317Z,94597.38
2023-01-13T02:00:11.174Z,94583.59
2023-01-13T02:02:44.157Z,94587.69
2023-01-13T02:05:11.100Z,94583.78
2023-01-13T02:07:41.683Z,94589.59
2023-01-13T02:10:12.548Z,94590.72
2023-01-13T02:12:43.135Z,94574.06
2023-01-13T02:15:13.030Z,94571.38
2023-01-13T02:18:20.476Z,94564.44
2023-01-13T02:20:47.170Z,94543.91
2023-01-13T02:23:54.435Z,94541.75
2023-01-13T02:26:46.005Z,94528.34
2023-01-13T02:29:34.552Z,94521.16
2023-01-13T02:32:11.998Z,94517.19
2023-01-13T02:34:45.864Z,94520.44
2023-01-13T02:37:23.996Z,94515.69
2023-01-13T02:40:15.852Z,94522.81
2023-01-13T02:43:09.482Z,94513.34
2023-01-13T02:45:39.843Z,94516.25
2023-01-13T02:48:09.153Z,94515.03
2023-01-13T02:51:02.064Z,94500.94
2023-01-13T02:53:38.792Z,94497.31
2023-01-13T02:56:08.179Z,94518.19
2023-01-13T02:58:38.054Z,94490.38
2023-01-13T03:01:05.664Z,94495.00
2023-01-13T03:03:32.594Z,94499.78
2023-01-13T03:06:18.051Z,94503.56
2023-01-13T03:08:57.731Z,94499.50
2023-01-13T03:11:31.582Z,94492.09
2023-01-13T03:14:19.234Z,94480.75
2023-01-13T03:17:16.313Z,94481.81
2023-01-13T03:19:58.715Z,94488.16
2023-01-13T03:22:35.951Z,94479.66
2023-01-13T03:25:05.387Z,94489.16
2023-01-13T03:27:40.905Z,94460.19
2023-01-13T03:30:14.858Z,94468.81
2023-01-13T03:32:54.094Z,94488.78
2023-01-13T03:35:25.933Z,94475.22
2023-01-13T03:38:06.230Z,94455.81
2023-01-13T03:44:55.060Z,94482.31
2023-01-13T03:47:24.989Z,94476.50
2023-01-13T03:50:00.647Z,94477.84
2023-01-13T03:52:38.979Z,94500.97
2023-01-13T03:55:14.103Z,94490.19
2023-01-13T03:57:49.869Z,94483.38
2023-01-13T04:00:19.684Z,94473.22
2023-01-13T04:03:03.872Z,94475.50
2023-01-13T04:05:34.601Z,94498.06
2023-01-13T04:08:21.185Z,94499.00
2023-01-13T04:10:58.195Z,94516.25
2023-01-13T04:13:29.387Z,94514.47
2023-01-13T04:15:56.641Z,94508.00
2023-01-13T04:18:28.701Z,94518.66
2023-01-13T04:20:59.109Z,94514.38
2023-01-13T04:23:27.938Z,94501.56
2023-01-13T04:25:55.645Z,94501.59
2023-01-13T04:28:23.180Z,94483.16
2023-01-13T04:30:50.223Z,94487.69
2023-01-13T04:33:18.536Z,94492.84
2023-01-13T04:35:46.568Z,94488.63
2023-01-13T04:38:16.278Z,94493.28
2023-01-13T04:40:43.483Z,94519.94
2023-01-13T04:43:10.601Z,94508.88
2023-01-13T04:45:37.317Z,94512.81
2023-01-13T04:48:04.844Z,94486.47
2023-01-13T04:50:32.022Z,94486.03
2023-01-13T04:53:00.497Z,94488.97
2023-01-13T04:55:27.853Z,94492.22
2023-01-13T04:57:54.621Z,94477.03
2023-01-13T05:00:22.976Z,94477.22
2023-01-13T05:02:51.351Z,94481.75
2023-01-13T05:05:19.131Z,94480.53
2023-01-13T05:07:46.104Z,94472.66
2023-01-13T05:10:13.206Z,94448.81
2023-01-13T05:12:58.355Z,94466.06
2023-01-13T05:15:43.824Z,94456.38
2023-01-13T05:18:11.065Z,94452.97
2023-01-13T05:20:38.099Z,94451.31
2023-01-13T05:23:23.192Z,94474.06
2023-01-13T05:25:50.328Z,94469.25
2023-01-13T05:28:17.034Z,94457.22
2023-01-13T05:30:46.225Z,94467.06
2023-01-13T05:33:15.363Z,94458.19
2023-01-13T05:35:44.310Z,94464.19
2023-01-13T05:38:12.198Z,94464.63
2023-01-13T05:40:59.630Z,94456.03
2023-01-13T05:43:28.739Z,94468.38
2023-01-13T05:46:02.763Z,94458.09
2023-01-13T05:48:32.880Z,94445.59
2023-01-13T05:51:01.089Z,94466.91
2023-01-13T05:53:28.175Z,94462.19
2023-01-13T05:55:54.996Z,94468.47
2023-01-13T05:58:24.440Z,94454.69
2023-01-13T06:00:52.092Z,94465.78
2023-01-13T06:03:20.650Z,94458.03
2023-01-13T06:05:48.540Z,94455.88
2023-01-13T06:08:15.376Z,94463.19
2023-01-13T06:10:42.468Z,94450.19
2023-01-13T06:13:09.203Z,94457.69
2023-01-13T06:15:35.925Z,94466.66
2023-01-13T06:18:04.453Z,94465.09
2023-01-13T06:20:32.360Z,94466.38
2023-01-13T06:22:59.821Z,94463.28
2023-01-13T06:25:31.435Z,94467.91
2023-01-13T06:27:59.951Z,94455.34
2023-01-13T06:30:33.996Z,94454.91
2023-01-13T06:33:04.484Z,94482.75
2023-01-13T06:35:35.338Z,94470.69
2023-01-13T06:38:07.763Z,94475.59
2023-01-13T06:40:36.159Z,94476.03
2023-01-13T06:43:16.612Z,94473.28
2023-01-13T06:45:47.924Z,94469.56
2023-01-13T06:48:15.788Z,94478.75
2023-01-13T06:50:42.488Z,94466.91
2023-01-13T06:53:09.811Z,94473.44
2023-01-13T06:55:37.448Z,94474.16
2023-01-13T06:58:05.087Z,94468.91
2023-01-13T07:00:38.294Z,94475.19
2023-01-13T07:03:13.466Z,94487.72
2023-01-13T07:05:42.102Z,94483.47
2023-01-13T07:08:10.117Z,94453.03
2023-01-13T07:10:38.166Z,94476.69
2023-01-13T07:13:25.296Z,94477.75
2023-01-13T07:15:59.977Z,94484.09
2023-01-13T07:18:31.521Z,94478.25
2023-01-13T07:21:04.594Z,94491.03
2023-01-13T07:23:34.265Z,94501.84
2023-01-13T07:26:01.339Z,94482.50
2023-01-13T07:28:29.404Z,94487.13
2023-01-13T07:30:57.154Z,94484.22
2023-01-13T07:33:24.653Z,94484.31
2023-01-13T07:35:59.527Z,94496.34
2023-01-13T07:38:27.609Z,94502.94
2023-01-13T07:40:54.884Z,94492.66
2023-01-13T07:43:34.048Z,94486.78
2023-01-13T07:46:04.745Z,94493.03
2023-01-13T07:48:33.547Z,94490.56
2023-01-13T07:51:11.835Z,94487.78
2023-01-13T07:53:38.758Z,94470.25
2023-01-13T07:56:07.172Z,94477.78
2023-01-13T07:58:35.888Z,94467.53
2023-01-13T08:01:10.632Z,94482.97
2023-01-13T08:03:38.290Z,94476.28
2023-01-13T08:06:06.257Z,94485.88
2023-01-13T08:08:34.030Z,94507.38
2023-01-13T08:11:04.885Z,94498.53
2023-01-13T08:13:31.971Z,94495.41
2023-01-13T08:16:01.951Z,94484.03
2023-01-13T08:18:29.636Z,94511.16
2023-01-13T08:20:56.387Z,94506.47
2023-01-13T08:23:24.082Z,94519.06
2023-01-13T08:25:50.835Z,94500.09
2023-01-13T08:28:18.204Z,94526.63
2023-01-13T08:30:45.345Z,94535.56
2023-01-13T08:33:13.220Z,94518.25
2023-01-13T08:35:42.188Z,94522.28
2023-01-13T08:38:09.567Z,94520.06
2023-01-13T08:40:39.035Z,94531.16
2023-01-13T08:43:06.196Z,94523.63
2023-01-13T08:45:33.321Z,94519.56
2023-01-13T08:48:00.014Z,94517.22
2023-01-13T08:50:26.752Z,94500.94
2023-01-13T08:52:54.577Z,94535.19
2023-01-13T08:55:21.342Z,94541.94
2023-01-13T08:57:48.523Z,94553.75
2023-01-13T09:00:17.346Z,94511.56
2023-01-13T09:02:44.686Z,94526.13
2023-01-13T09:05:11.748Z,94523.50
2023-01-13T09:07:39.794Z,94527.31
2023-01-13T09:10:08.967Z,94519.53
2023-01-13T09:12:54.806Z,94534.56
2023-01-13T09:15:21.963Z,94542.78
2023-01-13T09:17:48.924Z,94543.81
2023-01-13T09:20:15.991Z,94556.63
2023-01-13T09:22:42.863Z,94558.25
2023-01-13T09:25:10.245Z,94557.19
2023-01-13T09:27:37.080Z,94550.66
2023-01-13T09:30:04.893Z,94555.78
2023-01-13T09:32:31.775Z,94538.31
2023-01-13T09:35:01.848Z,94537.16
2023-01-13T09:37:31.520Z,94574.13
2023-01-13T09:39:58.283Z,94575.34
2023-01-13T09:43:19.015Z,94578.41
2023-01-13T09:46:00.312Z,94576.09
2023-01-13T09:48:32.826Z,94564.53
2023-01-13T09:51:09.697Z,94588.13
2023-01-13T09:53:47.583Z,94567.50
2023-01-13T09:56:14.361Z,94595.47
2023-01-13T09:58:41.962Z,94589.69
2023-01-13T10:01:18.034Z,94562.56
2023-01-13T10:03:45.465Z,94582.72
2023-01-13T10:06:23.764Z,94591.28
2023-01-13T10:08:51.334Z,94590.59
2023-01-13T10:11:42.383Z,94569.66
2023-01-13T10:14:30.472Z,94577.41
2023-01-13T10:17:40.303Z,94592.16
2023-01-13T10:20:07.150Z,94614.19
2023-01-13T10:22:57.676Z,94597.63
2023-01-13T10:25:32.477Z,94612.41
2023-01-13T10:28:10.419Z,94615.97
2023-01-13T10:30:41.159Z,94621.31
2023-01-13T10:33:13.916Z,94631.34
2023-01-13T10:36:12.140Z,94621.38
2023-01-13T10:38:45.887Z,94637.00
2023-01-13T10:41:15.911Z,94629.84
2023-01-13T10:44:02.393Z,94603.25
2023-01-13T10:46:30.175Z,94620.13
2023-01-13T10:49:02.476Z,94611.81
2023-01-13T10:51:40.924Z,94619.16
2023-01-13T10:54:13.617Z,94632.16
2023-01-13T10:56:43.631Z,94606.25
2023-01-13T10:59:22.278Z,94631.66
2023-01-13T11:02:19.892Z,94607.66
2023-01-13T11:04:54.662Z,94611.03
2023-01-13T11:07:41.770Z,94571.06
2023-01-13T11:10:28.320Z,94581.56
2023-01-13T11:13:13.776Z,94567.69
2023-01-13T11:16:13.470Z,94602.03
2023-01-13T11:18:40.966Z,94575.94
2023-01-13T11:21:23.082Z,94577.78
2023-01-13T11:24:14.954Z,94558.16
2023-01-13T11:26:54.504Z,94591.91
2023-01-13T11:29:31.905Z,94586.56
2023-01-13T11:32:11.731Z,94566.28
2023-01-13T11:34:42.339Z,94555.28
2023-01-13T11:37:23.419Z,94524.72
2023-01-13T11:40:04.192Z,94532.31
2023-01-13T11:42:54.794Z,94523.75
2023-01-13T11:45:24.664Z,94485.84
2023-01-13T11:47:57.655Z,94492.41
2023-01-13T11:51:02.337Z,94479.09
2023-01-13T11:53:56.916Z,94506.19
2023-01-13T11:56:51.402Z,94477.75
2023-01-13T11:59:37.792Z,94454.31
2023-01-13T12:02:19.368Z,94440.84
2023-01-13T12:04:53.242Z,94421.66
2023-01-13T12:07:57.660Z,94456.28
2023-01-13T12:10:50.678Z,94461.88
2023-01-13T12:13:24.836Z,94445.09
2023-01-13T12:16:26.727Z,94446.50
2023-01-13T12:19:21.423Z,94453.75
2023-01-13T12:22:06.988Z,94441.53
2023-01-13T12:24:55.106Z,94464.41
2023-01-13T12:28:13.642Z,94435.97
2023-01-13T12:30:50.843Z,94431.44
2023-01-13T12:33:29.390Z,94460.22
2023-01-13T12:36:06.939Z,94484.22
2023-01-13T12:38:42.803Z,94484.59
2023-01-13T12:41:29.562Z,94437.63
2023-01-13T12:44:24.083Z,94471.00
2023-01-13T12:46:57.092Z,94454.22
2023-01-13T12:49:37.319Z,94473.72
2023-01-13T12:52:07.816Z,94474.91
2023-01-13T12:54:37.302Z,94479.50
2023-01-13T12:57:16.320Z,94450.69
2023-01-13T13:00:03.022Z,94476.06
2023-01-13T13:02:41.928Z,94472.84
2023-01-13T13:05:14.796Z,94463.09
2023-01-13T13:07:47.490Z,94463.63
2023-01-13T13:10:31.620Z,94468.94
2023-01-13T13:13:21.263Z,94472.88
2023-01-13T13:15:50.366Z,94466.84
2023-01-13T13:18:17.302Z,94411.72
2023-01-13T13:21:07.041Z,94463.41
2023-01-13T13:23:35.425Z,94474.59
2023-01-13T13:26:31.988Z,94468.19
2023-01-13T13:29:34.092Z,94469.94
2023-01-13T13:32:31.964Z,94465.13
2023-01-13T13:35:27.109Z,94442.09
2023-01-13T13:38:29.550Z,94421.59
2023-01-13T13:41:14.840Z,94437.16
2023-01-13T13:44:02.859Z,94469.00
2023-01-13T13:46:46.859Z,94462.84
2023-01-13T13:49:22.042Z,94471.19
2023-01-13T13:51:59.743Z,94463.38
2023-01-13T13:54:27.899Z,94467.44
2023-01-13T13:56:54.736Z,94487.22
2023-01-13T13:59:24.663Z,94474.19
2023-01-13T14:02:01.296Z,94485.72
2023-01-13T14:04:31.426Z,94484.84
2023-01-13T14:07:01.764Z,94468.59
2023-01-13T14:09:45.920Z,94485.88
2023-01-13T14:12:22.057Z,94494.91
2023-01-13T14:14:49.819Z,94512.53
2023-01-13T14:17:22.243Z,94503.66
2023-01-13T14:20:16.254Z,94538.22
2023-01-13T14:22:48.363Z,94518.63
2023-01-13T14:25:51.973Z,94521.03
2023-01-13T14:28:28.190Z,94527.66
2023-01-13T14:30:57.009Z,94522.06
2023-01-13T14:33:41.417Z,94539.25
2023-01-13T14:36:08.311Z,94537.19
2023-01-13T14:38:35.644Z,94555.16
2023-01-13T14:41:26.800Z,94566.06
2023-01-13T14:43:59.343Z,94568.69
2023-01-13T14:46:45.743Z,94578.22
2023-01-13T14:49:24.598Z,94581.72
2023-01-13T14:51:54.692Z,94618.72
2023-01-13T14:55:02.798Z,94625.34
2023-01-13T14:57:32.361Z,94617.44
2023-01-13T15:00:01.974Z,94624.16
2023-01-13T15:02:34.631Z,94626.97
2023-01-13T15:05:19.845Z,94621.25
2023-01-13T15:08:02.478Z,94643.38
2023-01-13T15:10:34.839Z,94632.00
2023-01-13T15:13:04.317Z,94634.97
2023-01-13T15:15:34.026Z,94639.00
2023-01-13T15:18:22.539Z,94646.47
2023-01-13T15:20:51.067Z,94641.94
2023-01-13T15:23:19.851Z,94664.44
2023-01-13T15:25:47.774Z,94665.84
2023-01-13T15:28:21.599Z,94669.97
2023-01-13T15:30:50.466Z,94698.31
2023-01-13T15:33:18.264Z,94702.91
2023-01-13T15:35:48.015Z,94694.91
2023-01-13T15:38:19.843Z,94700.25
2023-01-13T15:40:48.424Z,94714.56
2023-01-13T15:43:37.000Z,94682.44
2023-01-13T15:46:19.266Z,94673.53
2023-01-13T15:48:46.292Z,94684.03
2023-01-13T15:51:21.137Z,94708.44
2023-01-13T15:53:49.146Z,94676.66
2023-01-13T15:56:23.182Z,94681.09
2023-01-13T15:58:59.573Z,94691.94
2023-01-13T16:01:26.437Z,94687.13
2023-01-13T16:03:55.924Z,94683.38
2023-01-13T16:06:33.198Z,94707.44
2023-01-13T16:09:00.941Z,94692.25
2023-01-13T16:11:29.396Z,94712.38
2023-01-13T16:13:57.805Z,94732.66
2023-01-13T16:16:27.829Z,94729.81
2023-01-13T16:18:55.192Z,94741.31
2023-01-13T16:21:22.560Z,94736.03
2023-01-13T16:23:50.949Z,94744.81
2023-01-13T16:26:23.844Z,94742.00
2023-01-13T16:28:52.439Z,94756.78
2023-01-13T16:31:28.464Z,94776.69
2023-01-13T16:33:55.438Z,94774.81
2023-01-13T16:36:22.622Z,94788.84
2023-01-13T16:38:51.485Z,94768.69
2023-01-13T16:41:19.823Z,94790.81
2023-01-13T16:43:48.095Z,94785.91
2023-01-13T16:46:21.244Z,94782.00
2023-01-13T16:48:49.040Z,94805.19
2023-01-13T16:51:16.173Z,94803.19
2023-01-13T16:53:43.589Z,94788.69
2023-01-13T16:56:26.424Z,94804.75
2023-01-13T16:58:55.263Z,94795.63
2023-01-13T17:01:33.507Z,94787.22
2023-01-13T17:04:01.318Z,94800.09
2023-01-13T17:06:36.543Z,94796.00
2023-01-13T17:09:15.892Z,94782.34
2023-01-13T17:11:43.813Z,94790.19
2023-01-13T17:14:19.245Z,94810.94
2023-01-13T17:16:46.938Z,94792.75
2023-01-13T17:19:14.648Z,94795.50
2023-01-13T17:21:42.318Z,94796.97
2023-01-13T17:24:12.278Z,94791.09
2023-01-13T17:26:47.165Z,94782.56
2023-01-13T17:29:19.477Z,94795.59
2023-01-13T17:31:46.652Z,94772.91
2023-01-13T17:34:14.676Z,94785.88
2023-01-13T17:36:43.900Z,94790.31
2023-01-13T17:39:16.820Z,94787.28
2023-01-13T17:41:43.772Z,94803.00
2023-01-13T17:44:14.643Z,94815.41
2023-01-13T17:46:42.251Z,94790.72
2023-01-13T17:49:19.739Z,94784.66
2023-01-13T17:51:48.297Z,94792.47
2023-01-13T17:54:15.764Z,94790.72
2023-01-13T17:56:43.859Z,94800.72
2023-01-13T17:59:16.886Z,94811.91
2023-01-13T18:01:44.995Z,94823.84
2023-01-13T18:04:20.689Z,94848.94
2023-01-13T18:06:48.545Z,94829.63
2023-01-13T18:09:16.605Z,94844.38
2023-01-13T18:11:45.207Z,94836.50
2023-01-13T18:14:14.035Z,94831.81
2023-01-13T18:16:40.975Z,94818.91
2023-01-13T18:19:43.157Z,94843.19
2023-01-13T18:22:32.829Z,94822.63
2023-01-13T18:25:20.852Z,94833.22
2023-01-13T18:27:48.655Z,94854.03
2023-01-13T18:30:16.121Z,94852.63
2023-01-13T18:32:43.128Z,94856.38
2023-01-13T18:35:11.084Z,94858.63
2023-01-13T18:37:40.533Z,94862.25
2023-01-13T18:40:10.072Z,94855.31
2023-01-13T18:42:54.935Z,94867.31
2023-01-13T18:45:25.653Z,94885.41
2023-01-13T18:47:54.284Z,94877.13
2023-01-13T18:50:22.454Z,94893.53
2023-01-13T18:52:49.852Z,94892.50
2023-01-13T18:55:18.163Z,94894.16
2023-01-13T18:57:45.781Z,94907.56
2023-01-13T19:00:17.454Z,94880.59
2023-01-13T19:02:47.778Z,94900.34
2023-01-13T19:05:15.729Z,94890.28
2023-01-13T19:07:50.419Z,94867.44
2023-01-13T19:10:18.146Z,94885.47
2023-01-13T19:12:45.847Z,94888.13
2023-01-13T19:15:12.916Z,94912.75
2023-01-13T19:17:39.668Z,94908.00
2023-01-13T19:20:07.314Z,94899.69
2023-01-13T19:22:35.022Z,94915.97
2023-01-13T19:25:03.679Z,94928.56
2023-01-13T19:27:31.734Z,94915.59
2023-01-13T19:30:01.742Z,94943.94
2023-01-13T19:32:31.795Z,94925.53
2023-01-13T19:35:00.106Z,94931.81
2023-01-13T19:37:32.025Z,94947.78
2023-01-13T19:40:00.263Z,94928.66
2023-01-13T19:42:46.325Z,94920.38
2023-01-13T19:45:34.959Z,94935.38
2023-01-13T19:48:02.464Z,94937.69
2023-01-13T19:50:29.240Z,94949.72
2023-01-13T19:52:57.411Z,94972.22
2023-01-13T19:55:24.570Z,94950.38
2023-01-13T19:57:51.870Z,94941.19
2023-01-13T20:00:21.138Z,94949.44
2023-01-13T20:02:49.629Z,94955.41
2023-01-13T20:05:21.579Z,94934.31
2023-01-13T20:07:50.709Z,94954.13
2023-01-13T20:10:20.342Z,94951.66
2023-01-13T20:12:47.405Z,94952.47
2023-01-13T20:15:14.329Z,94975.25
2023-01-13T20:17:41.832Z,94982.75
2023-01-13T20:20:10.152Z,94965.09
2023-01-13T20:22:38.784Z,94976.41
2023-01-13T20:25:06.510Z,94967.78
2023-01-13T20:27:33.957Z,94966.66
2023-01-13T20:30:00.892Z,94990.34
2023-01-13T20:32:27.613Z,94998.69
2023-01-13T20:34:54.398Z,94982.13
2023-01-13T20:37:21.529Z,94978.41
2023-01-13T20:39:48.649Z,94973.75
2023-01-13T20:42:32.420Z,94975.81
2023-01-13T20:45:00.940Z,94974.53
2023-01-13T20:47:29.275Z,94973.94
2023-01-13T20:49:56.666Z,94957.84
2023-01-13T20:52:23.934Z,94973.13
2023-01-13T20:54:50.911Z,94971.41
2023-01-13T20:57:17.881Z,94986.38
2023-01-13T20:59:44.646Z,94979.69
2023-01-13T21:02:14.911Z,94992.97
2023-01-13T21:04:41.993Z,94975.28
2023-01-13T21:07:10.647Z,94988.84
2023-01-13T21:09:38.038Z,95009.19
2023-01-13T21:12:23.812Z,95012.28
2023-01-13T21:15:09.179Z,95009.69
2023-01-13T21:17:54.497Z,94980.66
2023-01-13T21:20:21.488Z,94987.88
2023-01-13T21:22:49.698Z,94989.06
2023-01-13T21:25:18.498Z,95005.47
2023-01-13T21:27:45.261Z,95012.06
2023-01-13T21:30:15.091Z,95025.94
2023-01-13T21:32:44.183Z,95048.34
2023-01-13T21:35:12.300Z,95058.88
2023-01-13T21:37:41.452Z,95056.69
2023-01-13T21:40:12.033Z,95098.53
2023-01-13T21:42:57.856Z,95079.38
2023-01-13T21:45:43.090Z,95073.63
2023-01-13T21:48:09.928Z,95060.38
2023-01-13T21:50:41.158Z,95068.00
2023-01-13T21:53:08.364Z,95075.31
2023-01-13T21:55:36.774Z,95058.59
2023-01-13T21:58:12.918Z,95042.53
2023-01-13T22:00:43.609Z,95027.63
2023-01-13T22:03:12.166Z,95060.91
2023-01-13T22:05:39.295Z,95086.53
2023-01-13T22:08:06.568Z,95084.31
2023-01-13T22:10:34.332Z,95090.03
2023-01-13T22:13:22.606Z,95089.13
2023-01-13T22:15:49.839Z,95095.00
2023-01-13T22:18:18.366Z,95087.09
2023-01-13T22:20:46.542Z,95084.72
2023-01-13T22:23:13.600Z,95076.72
2023-01-13T22:25:40.418Z,95064.22
2023-01-13T22:28:09.216Z,95086.34
2023-01-13T22:30:36.549Z,95083.75
2023-01-13T22:33:03.707Z,95077.50
2023-01-13T22:35:30.917Z,95089.34
2023-01-13T22:37:58.666Z,95086.25
2023-01-13T22:40:25.392Z,95084.25
2023-01-13T22:42:52.256Z,95082.59
2023-01-13T22:45:19.369Z,95096.28
2023-01-13T22:47:46.166Z,95086.75
2023-01-13T22:50:13.367Z,95104.66
2023-01-13T22:52:40.077Z,95103.91
2023-01-13T22:55:07.735Z,95111.56
2023-01-13T22:57:36.375Z,95096.38
2023-01-13T23:00:10.340Z,95121.41
2023-01-13T23:02:38.299Z,95095.34
2023-01-13T23:05:05.669Z,95114.09
2023-01-13T23:07:32.487Z,95101.59
2023-01-13T23:09:59.172Z,95111.41
2023-01-13T23:12:25.947Z,95132.22
2023-01-13T23:14:52.960Z,95116.56
2023-01-13T23:17:20.431Z,95137.72
2023-01-13T23:19:47.311Z,95138.97
2023-01-13T23:22:14.010Z,95107.94
2023-01-13T23:24:40.807Z,95116.06
2023-01-13T23:27:07.654Z,95111.41
2023-01-13T23:29:34.421Z,95121.28
2023-01-13T23:32:01.088Z,95108.22
2023-01-13T23:34:28.319Z,95091.09
2023-01-13T23:36:55.206Z,95102.50
2023-01-13T23:39:21.911Z,95109.75
2023-01-13T23:41:48.824Z,95104.16
2023-01-13T23:44:15.720Z,95109.31
2023-01-13T23:46:42.535Z,95112.97
2023-01-13T23:49:09.502Z,95114.56
2023-01-13T23:51:36.280Z,95107.53
2023-01-13T23:54:03.662Z,95085.25
2023-01-13T23:56:31.484Z,95112.50
2023-01-13T23:58:58.958Z,95106.53
